sensor_id;sensor_type;location;lat;lon;timestamp;pressure;altitude;pressure_sealevel;temperature;humidity
16664;BME280;8445;51.270;9.434;2023-05-09T00:01:10;99801.97;;;22.73;30.73
16664;BME280;8445;51.270;9.434;2023-05-09T00:03:37;99802.25;;;22.63;30.14
16664;BME280;8445;51.270;9.434;2023-05-09T00:06:04;99797.22;;;22.60;30.20
16664;BME280;8445;51.270;9.434;2023-05-09T00:08:29;99795.09;;;22.56;30.52
16664;BME280;8445;51.270;9.434;2023-05-09T00:10:55;99800.66;;;22.54;30.08
16664;BME280;8445;51.270;9.434;2023-05-09T00:13:20;99800.38;;;22.49;30.41
16664;BME280;8445;51.270;9.434;2023-05-09T00:15:46;99799.59;;;22.40;30.51
16664;BME280;8445;51.270;9.434;2023-05-09T00:18:12;99798.19;;;22.29;30.40
16664;BME280;8445;51.270;9.434;2023-05-09T00:20:38;99794.56;;;22.22;30.63
16664;BME280;8445;51.270;9.434;2023-05-09T00:23:06;99797.97;;;22.16;30.84
16664;BME280;8445;51.270;9.434;2023-05-09T00:25:32;99786.44;;;22.07;30.98
16664;BME280;8445;51.270;9.434;2023-05-09T00:27:57;99788.72;;;21.95;30.93
16664;BME280;8445;51.270;9.434;2023-05-09T00:30:23;99773.63;;;21.86;30.69
16664;BME280;8445;51.270;9.434;2023-05-09T00:32:48;99777.34;;;21.85;31.00
16664;BME280;8445;51.270;9.434;2023-05-09T00:35:14;99771.31;;;21.83;30.71
16664;BME280;8445;51.270;9.434;2023-05-09T00:37:40;99776.44;;;21.77;30.90
16664;BME280;8445;51.270;9.434;2023-05-09T00:40:06;99771.97;;;21.85;30.85
16664;BME280;8445;51.270;9.434;2023-05-09T00:42:34;99771.25;;;21.91;30.71
16664;BME280;8445;51.270;9.434;2023-05-09T00:45:00;99766.34;;;21.95;30.66
16664;BME280;8445;51.270;9.434;2023-05-09T00:47:26;99768.84;;;21.96;30.52
16664;BME280;8445;51.270;9.434;2023-05-09T00:49:52;99769.03;;;21.95;30.60
16664;BME280;8445;51.270;9.434;2023-05-09T00:52:18;99766.81;;;21.98;30.70
16664;BME280;8445;51.270;9.434;2023-05-09T00:54:49;99756.75;;;21.92;30.88
16664;BME280;8445;51.270;9.434;2023-05-09T00:57:15;99760.00;;;21.87;31.13
16664;BME280;8445;51.270;9.434;2023-05-09T00:59:41;99766.13;;;21.81;31.09
16664;BME280;8445;51.270;9.434;2023-05-09T01:02:06;99758.78;;;21.90;30.97
16664;BME280;8445;51.270;9.434;2023-05-09T01:04:32;99754.25;;;21.90;30.70
16664;BME280;8445;51.270;9.434;2023-05-09T01:09:55;99754.56;;;21.96;32.77
16664;BME280;8445;51.270;9.434;2023-05-09T01:12:33;99744.94;;;21.78;32.20
16664;BME280;8445;51.270;9.434;2023-05-09T01:17:50;99741.25;;;21.94;32.82
16664;BME280;8445;51.270;9.434;2023-05-09T01:20:37;99735.56;;;21.89;33.32
16664;BME280;8445;51.270;9.434;2023-05-09T01:32:06;99740.59;;;21.22;31.99
16664;BME280;8445;51.270;9.434;2023-05-09T01:34:33;99730.44;;;21.09;31.81
16664;BME280;8445;51.270;9.434;2023-05-09T01:37:00;99738.53;;;21.01;31.73
16664;BME280;8445;51.270;9.434;2023-05-09T01:39:32;99733.50;;;20.98;32.06
16664;BME280;8445;51.270;9.434;2023-05-09T01:42:01;99740.25;;;20.94;32.30
16664;BME280;8445;51.270;9.434;2023-05-09T01:44:32;99732.19;;;20.94;32.41
16664;BME280;8445;51.270;9.434;2023-05-09T01:47:00;99726.44;;;20.97;31.77
16664;BME280;8445;51.270;9.434;2023-05-09T01:49:28;99728.94;;;20.98;31.97
16664;BME280;8445;51.270;9.434;2023-05-09T01:51:55;99725.75;;;21.03;31.58
16664;BME280;8445;51.270;9.434;2023-05-09T01:54:22;99731.13;;;21.03;31.96
16664;BME280;8445;51.270;9.434;2023-05-09T01:56:53;99722.75;;;20.98;31.82
16664;BME280;8445;51.270;9.434;2023-05-09T01:59:20;99729.59;;;21.00;31.77
16664;BME280;8445;51.270;9.434;2023-05-09T02:01:47;99728.94;;;20.98;31.54
16664;BME280;8445;51.270;9.434;2023-05-09T02:04:14;99722.44;;;20.93;31.71
16664;BME280;8445;51.270;9.434;2023-05-09T02:06:41;99719.41;;;20.96;32.01
16664;BME280;8445;51.270;9.434;2023-05-09T02:09:09;99719.03;;;20.99;31.78
16664;BME280;8445;51.270;9.434;2023-05-09T02:11:35;99722.09;;;20.96;32.11
16664;BME280;8445;51.270;9.434;2023-05-09T02:14:01;99710.03;;;20.83;32.08
16664;BME280;8445;51.270;9.434;2023-05-09T02:16:27;99721.78;;;20.91;32.21
16664;BME280;8445;51.270;9.434;2023-05-09T02:18:52;99721.78;;;20.91;32.37
16664;BME280;8445;51.270;9.434;2023-05-09T02:21:18;99722.97;;;20.88;31.96
16664;BME280;8445;51.270;9.434;2023-05-09T02:23:43;99721.47;;;20.85;32.37
16664;BME280;8445;51.270;9.434;2023-05-09T02:26:09;99708.56;;;20.81;32.28
16664;BME280;8445;51.270;9.434;2023-05-09T02:28:35;99711.72;;;20.76;32.40
16664;BME280;8445;51.270;9.434;2023-05-09T02:31:04;99708.75;;;20.63;32.55
16664;BME280;8445;51.270;9.434;2023-05-09T02:33:33;99716.53;;;20.57;32.78
16664;BME280;8445;51.270;9.434;2023-05-09T02:35:59;99718.03;;;20.52;32.48
16664;BME280;8445;51.270;9.434;2023-05-09T02:38:25;99715.88;;;20.47;32.48
16664;BME280;8445;51.270;9.434;2023-05-09T02:40:52;99716.03;;;20.46;32.67
16664;BME280;8445;51.270;9.434;2023-05-09T02:43:17;99711.69;;;20.44;32.53
16664;BME280;8445;51.270;9.434;2023-05-09T02:45:43;99708.50;;;20.41;32.98
16664;BME280;8445;51.270;9.434;2023-05-09T02:48:08;99705.19;;;20.31;32.96
16664;BME280;8445;51.270;9.434;2023-05-09T02:50:34;99707.19;;;20.28;32.92
16664;BME280;8445;51.270;9.434;2023-05-09T02:53:00;99699.81;;;20.31;32.88
16664;BME280;8445;51.270;9.434;2023-05-09T02:55:25;99710.91;;;20.19;33.08
16664;BME280;8445;51.270;9.434;2023-05-09T02:57:51;99703.19;;;20.16;32.89
16664;BME280;8445;51.270;9.434;2023-05-09T03:00:16;99700.16;;;20.19;33.05
16664;BME280;8445;51.270;9.434;2023-05-09T03:02:43;99693.09;;;20.26;33.04
16664;BME280;8445;51.270;9.434;2023-05-09T03:05:14;99693.56;;;20.38;32.91
16664;BME280;8445;51.270;9.434;2023-05-09T03:07:39;99692.53;;;20.39;32.70
16664;BME280;8445;51.270;9.434;2023-05-09T03:10:05;99687.34;;;20.38;32.58
16664;BME280;8445;51.270;9.434;2023-05-09T03:12:31;99687.50;;;20.36;32.93
16664;BME280;8445;51.270;9.434;2023-05-09T03:14:56;99687.72;;;20.35;32.86
16664;BME280;8445;51.270;9.434;2023-05-09T03:17:22;99685.38;;;20.32;33.10
16664;BME280;8445;51.270;9.434;2023-05-09T03:19:48;99683.72;;;20.22;33.07
16664;BME280;8445;51.270;9.434;2023-05-09T03:22:13;99692.78;;;20.13;32.91
16664;BME280;8445;51.270;9.434;2023-05-09T03:24:47;99680.72;;;20.09;32.86
16664;BME280;8445;51.270;9.434;2023-05-09T03:27:12;99680.56;;;20.02;32.88
16664;BME280;8445;51.270;9.434;2023-05-09T03:29:38;99674.19;;;20.11;32.86
16664;BME280;8445;51.270;9.434;2023-05-09T03:32:03;99667.25;;;20.17;32.96
16664;BME280;8445;51.270;9.434;2023-05-09T03:34:29;99661.72;;;20.27;32.99
16664;BME280;8445;51.270;9.434;2023-05-09T03:36:56;99658.84;;;20.28;32.88
16664;BME280;8445;51.270;9.434;2023-05-09T03:39:23;99668.91;;;20.35;32.54
16664;BME280;8445;51.270;9.434;2023-05-09T03:41:52;99657.50;;;20.33;32.84
16664;BME280;8445;51.270;9.434;2023-05-09T03:44:18;99659.81;;;20.36;32.83
16664;BME280;8445;51.270;9.434;2023-05-09T03:46:43;99662.84;;;20.41;32.84
16664;BME280;8445;51.270;9.434;2023-05-09T03:49:09;99670.91;;;20.41;32.87
16664;BME280;8445;51.270;9.434;2023-05-09T03:51:35;99658.94;;;20.43;32.96
16664;BME280;8445;51.270;9.434;2023-05-09T03:54:03;99656.78;;;20.47;33.27
16664;BME280;8445;51.270;9.434;2023-05-09T03:56:29;99657.94;;;20.44;33.33
16664;BME280;8445;51.270;9.434;2023-05-09T03:58:54;99661.78;;;20.50;33.07
16664;BME280;8445;51.270;9.434;2023-05-09T04:01:20;99660.59;;;20.53;32.98
16664;BME280;8445;51.270;9.434;2023-05-09T04:03:46;99662.28;;;20.54;33.21
16664;BME280;8445;51.270;9.434;2023-05-09T04:06:14;99656.41;;;20.50;33.42
16664;BME280;8445;51.270;9.434;2023-05-09T04:08:42;99663.47;;;20.51;33.46
16664;BME280;8445;51.270;9.434;2023-05-09T04:11:07;99663.13;;;20.54;33.35
16664;BME280;8445;51.270;9.434;2023-05-09T04:13:35;99660.25;;;20.56;33.30
16664;BME280;8445;51.270;9.434;2023-05-09T04:16:06;99652.03;;;20.57;33.53
16664;BME280;8445;51.270;9.434;2023-05-09T04:18:33;99651.69;;;20.61;33.28
16664;BME280;8445;51.270;9.434;2023-05-09T04:20:59;99648.59;;;20.64;33.72
16664;BME280;8445;51.270;9.434;2023-05-09T04:23:24;99655.63;;;20.73;33.69
16664;BME280;8445;51.270;9.434;2023-05-09T04:25:51;99655.25;;;20.84;33.36
16664;BME280;8445;51.270;9.434;2023-05-09T04:28:18;99651.03;;;20.90;33.25
16664;BME280;8445;51.270;9.434;2023-05-09T04:30:44;99652.81;;;20.98;33.79
16664;BME280;8445;51.270;9.434;2023-05-09T04:33:10;99648.41;;;21.05;33.53
16664;BME280;8445;51.270;9.434;2023-05-09T04:35:37;99653.09;;;21.11;33.67
16664;BME280;8445;51.270;9.434;2023-05-09T04:38:02;99648.28;;;21.22;33.59
16664;BME280;8445;51.270;9.434;2023-05-09T04:40:29;99650.91;;;21.30;33.64
16664;BME280;8445;51.270;9.434;2023-05-09T04:42:57;99648.16;;;21.38;33.39
16664;BME280;8445;51.270;9.434;2023-05-09T04:45:26;99640.47;;;21.50;33.53
16664;BME280;8445;51.270;9.434;2023-05-09T04:50:17;99645.13;;;21.80;33.51
16664;BME280;8445;51.270;9.434;2023-05-09T04:52:43;99637.25;;;21.93;33.90
16664;BME280;8445;51.270;9.434;2023-05-09T04:55:08;99645.16;;;22.10;33.67
16664;BME280;8445;51.270;9.434;2023-05-09T04:57:38;99636.22;;;22.24;33.63
16664;BME280;8445;51.270;9.434;2023-05-09T05:00:05;99640.97;;;22.37;33.50
16664;BME280;8445;51.270;9.434;2023-05-09T05:02:35;99641.72;;;22.46;33.46
16664;BME280;8445;51.270;9.434;2023-05-09T05:05:01;99638.16;;;22.60;33.54
16664;BME280;8445;51.270;9.434;2023-05-09T05:07:27;99638.50;;;22.72;33.65
16664;BME280;8445;51.270;9.434;2023-05-09T05:09:52;99638.59;;;22.79;33.55
16664;BME280;8445;51.270;9.434;2023-05-09T05:12:18;99634.38;;;22.91;33.59
16664;BME280;8445;51.270;9.434;2023-05-09T05:14:43;99627.69;;;23.09;33.66
16664;BME280;8445;51.270;9.434;2023-05-09T05:17:12;99632.47;;;23.29;33.50
16664;BME280;8445;51.270;9.434;2023-05-09T05:19:37;99634.66;;;23.40;33.61
16664;BME280;8445;51.270;9.434;2023-05-09T05:22:05;99634.03;;;23.66;33.47
16664;BME280;8445;51.270;9.434;2023-05-09T05:24:32;99631.88;;;23.90;33.67
16664;BME280;8445;51.270;9.434;2023-05-09T05:26:57;99623.25;;;24.37;33.67
16664;BME280;8445;51.270;9.434;2023-05-09T05:29:23;99618.16;;;24.69;33.87
16664;BME280;8445;51.270;9.434;2023-05-09T05:31:49;99615.69;;;24.81;33.45
16664;BME280;8445;51.270;9.434;2023-05-09T05:34:14;99612.63;;;24.91;33.39
16664;BME280;8445;51.270;9.434;2023-05-09T05:36:42;99612.00;;;24.95;33.46
16664;BME280;8445;51.270;9.434;2023-05-09T05:39:07;99612.22;;;25.00;33.86
16664;BME280;8445;51.270;9.434;2023-05-09T05:41:33;99609.31;;;25.22;33.55
16664;BME280;8445;51.270;9.434;2023-05-09T05:43:59;99608.09;;;25.31;33.90
16664;BME280;8445;51.270;9.434;2023-05-09T05:46:25;99612.66;;;25.65;33.63
16664;BME280;8445;51.270;9.434;2023-05-09T05:48:51;99607.19;;;25.92;33.46
16664;BME280;8445;51.270;9.434;2023-05-09T05:51:16;99600.47;;;26.21;33.34
16664;BME280;8445;51.270;9.434;2023-05-09T05:53:42;99597.34;;;26.70;33.48
16664;BME280;8445;51.270;9.434;2023-05-09T05:56:08;99597.91;;;27.11;33.43
16664;BME280;8445;51.270;9.434;2023-05-09T05:58:34;99596.34;;;27.54;33.51
16664;BME280;8445;51.270;9.434;2023-05-09T06:01:00;99607.19;;;27.98;33.21
16664;BME280;8445;51.270;9.434;2023-05-09T06:03:27;99600.19;;;28.27;32.93
16664;BME280;8445;51.270;9.434;2023-05-09T06:05:59;99598.72;;;28.43;33.25
16664;BME280;8445;51.270;9.434;2023-05-09T06:08:25;99592.50;;;28.54;32.98
16664;BME280;8445;51.270;9.434;2023-05-09T06:10:51;99594.22;;;28.98;32.78
16664;BME280;8445;51.270;9.434;2023-05-09T06:13:16;99589.22;;;29.37;33.00
16664;BME280;8445;51.270;9.434;2023-05-09T06:15:46;99581.75;;;29.68;33.07
16664;BME280;8445;51.270;9.434;2023-05-09T06:18:12;99584.94;;;30.01;32.46
16664;BME280;8445;51.270;9.434;2023-05-09T06:20:37;99581.47;;;30.06;32.30
16664;BME280;8445;51.270;9.434;2023-05-09T06:23:03;99577.44;;;29.96;32.41
16664;BME280;8445;51.270;9.434;2023-05-09T06:25:28;99573.91;;;29.84;32.14
16664;BME280;8445;51.270;9.434;2023-05-09T06:27:54;99579.13;;;29.73;32.22
16664;BME280;8445;51.270;9.434;2023-05-09T06:30:19;99572.34;;;29.76;31.90
16664;BME280;8445;51.270;9.434;2023-05-09T06:32:45;99579.38;;;29.84;32.14
16664;BME280;8445;51.270;9.434;2023-05-09T06:35:10;99575.69;;;29.78;32.21
16664;BME280;8445;51.270;9.434;2023-05-09T06:37:35;99563.50;;;29.57;31.87
16664;BME280;8445;51.270;9.434;2023-05-09T06:40:01;99567.88;;;29.34;32.02
16664;BME280;8445;51.270;9.434;2023-05-09T06:42:27;99564.16;;;29.17;32.19
16664;BME280;8445;51.270;9.434;2023-05-09T06:44:54;99564.16;;;29.17;32.27
16664;BME280;8445;51.270;9.434;2023-05-09T06:47:19;99563.09;;;29.29;32.25
16664;BME280;8445;51.270;9.434;2023-05-09T06:49:45;99558.53;;;29.42;31.89
16664;BME280;8445;51.270;9.434;2023-05-09T06:52:10;99557.00;;;29.70;32.06
16664;BME280;8445;51.270;9.434;2023-05-09T06:54:37;99557.78;;;29.70;31.61
16664;BME280;8445;51.270;9.434;2023-05-09T06:57:03;99551.91;;;29.62;31.75
16664;BME280;8445;51.270;9.434;2023-05-09T06:59:28;99548.47;;;29.54;31.48
16664;BME280;8445;51.270;9.434;2023-05-09T07:01:54;99535.53;;;29.50;31.76
16664;BME280;8445;51.270;9.434;2023-05-09T07:04:20;99536.00;;;29.47;31.56
16664;BME280;8445;51.270;9.434;2023-05-09T07:06:45;99531.25;;;29.54;31.26
16664;BME280;8445;51.270;9.434;2023-05-09T07:09:10;99515.38;;;29.51;31.44
16664;BME280;8445;51.270;9.434;2023-05-09T07:11:39;99525.59;;;29.55;31.62
16664;BME280;8445;51.270;9.434;2023-05-09T07:14:04;99522.84;;;29.67;31.51
16664;BME280;8445;51.270;9.434;2023-05-09T07:16:30;99519.38;;;29.84;31.06
16664;BME280;8445;51.270;9.434;2023-05-09T07:18:55;99516.22;;;30.16;31.26
16664;BME280;8445;51.270;9.434;2023-05-09T07:21:20;99519.50;;;30.30;31.72
16664;BME280;8445;51.270;9.434;2023-05-09T07:23:46;99520.91;;;30.61;31.90
16664;BME280;8445;51.270;9.434;2023-05-09T07:26:11;99508.56;;;30.93;31.60
16664;BME280;8445;51.270;9.434;2023-05-09T07:28:37;99507.25;;;31.30;31.72
16664;BME280;8445;51.270;9.434;2023-05-09T07:31:03;99498.06;;;31.58;31.06
16664;BME280;8445;51.270;9.434;2023-05-09T07:33:30;99498.47;;;31.67;31.19
16664;BME280;8445;51.270;9.434;2023-05-09T07:35:57;99492.19;;;31.89;31.20
16664;BME280;8445;51.270;9.434;2023-05-09T07:38:22;99484.91;;;32.22;31.34
16664;BME280;8445;51.270;9.434;2023-05-09T07:40:48;99485.22;;;32.53;31.04
16664;BME280;8445;51.270;9.434;2023-05-09T07:43:13;99482.63;;;32.68;30.84
16664;BME280;8445;51.270;9.434;2023-05-09T07:45:39;99488.66;;;32.71;30.80
16664;BME280;8445;51.270;9.434;2023-05-09T07:48:04;99486.13;;;32.91;30.57
16664;BME280;8445;51.270;9.434;2023-05-09T07:50:30;99482.38;;;33.08;30.55
16664;BME280;8445;51.270;9.434;2023-05-09T07:52:55;99479.13;;;33.11;30.46
16664;BME280;8445;51.270;9.434;2023-05-09T07:55:21;99475.16;;;32.91;30.33
16664;BME280;8445;51.270;9.434;2023-05-09T07:57:46;99477.22;;;32.46;30.66
16664;BME280;8445;51.270;9.434;2023-05-09T08:00:12;99474.34;;;32.31;30.33
16664;BME280;8445;51.270;9.434;2023-05-09T08:02:39;99464.97;;;32.27;30.31
16664;BME280;8445;51.270;9.434;2023-05-09T08:05:05;99465.47;;;32.23;30.28
16664;BME280;8445;51.270;9.434;2023-05-09T08:07:30;99463.53;;;32.19;30.03
16664;BME280;8445;51.270;9.434;2023-05-09T08:09:56;99461.06;;;32.45;30.61
16664;BME280;8445;51.270;9.434;2023-05-09T08:12:21;99459.25;;;32.88;30.46
16664;BME280;8445;51.270;9.434;2023-05-09T08:14:46;99453.50;;;33.38;29.89
16664;BME280;8445;51.270;9.434;2023-05-09T08:17:12;99450.31;;;33.56;29.63
16664;BME280;8445;51.270;9.434;2023-05-09T08:19:37;99456.19;;;33.28;29.98
16664;BME280;8445;51.270;9.434;2023-05-09T08:22:03;99442.63;;;33.48;29.42
16664;BME280;8445;51.270;9.434;2023-05-09T08:24:28;99446.63;;;33.35;29.92
16664;BME280;8445;51.270;9.434;2023-05-09T08:26:54;99439.41;;;33.72;29.94
16664;BME280;8445;51.270;9.434;2023-05-09T08:29:19;99435.78;;;33.56;29.81
16664;BME280;8445;51.270;9.434;2023-05-09T08:31:45;99440.28;;;33.88;29.60
16664;BME280;8445;51.270;9.434;2023-05-09T08:34:10;99453.00;;;34.15;29.81
16664;BME280;8445;51.270;9.434;2023-05-09T08:36:36;99446.16;;;34.43;29.66
16664;BME280;8445;51.270;9.434;2023-05-09T08:39:02;99428.31;;;34.82;29.76
16664;BME280;8445;51.270;9.434;2023-05-09T08:41:27;99436.22;;;35.25;29.56
16664;BME280;8445;51.270;9.434;2023-05-09T08:43:53;99438.31;;;35.54;29.26
16664;BME280;8445;51.270;9.434;2023-05-09T08:46:25;99433.31;;;35.72;27.51
16664;BME280;8445;51.270;9.434;2023-05-09T08:48:53;99428.69;;;36.07;29.34
16664;BME280;8445;51.270;9.434;2023-05-09T08:51:19;99425.13;;;36.46;29.55
16664;BME280;8445;51.270;9.434;2023-05-09T08:53:46;99421.28;;;37.06;29.28
16664;BME280;8445;51.270;9.434;2023-05-09T08:56:16;99416.56;;;37.56;28.82
16664;BME280;8445;51.270;9.434;2023-05-09T08:58:44;99413.06;;;37.88;28.78
16664;BME280;8445;51.270;9.434;2023-05-09T09:01:12;99415.69;;;37.79;28.62
16664;BME280;8445;51.270;9.434;2023-05-09T09:03:38;99407.69;;;37.78;28.13
16664;BME280;8445;51.270;9.434;2023-05-09T09:06:06;99410.56;;;37.92;27.81
16664;BME280;8445;51.270;9.434;2023-05-09T09:08:35;99406.84;;;38.02;28.06
16664;BME280;8445;51.270;9.434;2023-05-09T09:11:05;99405.09;;;38.25;28.19
16664;BME280;8445;51.270;9.434;2023-05-09T09:13:36;99402.22;;;38.49;26.32
16664;BME280;8445;51.270;9.434;2023-05-09T09:16:05;99405.41;;;38.57;27.55
16664;BME280;8445;51.270;9.434;2023-05-09T09:18:32;99396.03;;;38.38;27.57
16664;BME280;8445;51.270;9.434;2023-05-09T09:21:06;99382.69;;;38.26;26.56
16664;BME280;8445;51.270;9.434;2023-05-09T09:23:37;99373.69;;;37.82;27.31
16664;BME280;8445;51.270;9.434;2023-05-09T09:26:03;99366.44;;;37.48;27.03
16664;BME280;8445;51.270;9.434;2023-05-09T09:28:29;99368.97;;;37.01;27.48
16664;BME280;8445;51.270;9.434;2023-05-09T09:30:54;99363.69;;;36.75;26.66
16664;BME280;8445;51.270;9.434;2023-05-09T09:33:21;99360.53;;;36.28;26.93
16664;BME280;8445;51.270;9.434;2023-05-09T09:35:51;99358.66;;;35.84;27.86
16664;BME280;8445;51.270;9.434;2023-05-09T09:38:18;99343.28;;;35.78;27.42
16664;BME280;8445;51.270;9.434;2023-05-09T09:40:53;99354.56;;;35.81;27.19
16664;BME280;8445;51.270;9.434;2023-05-09T09:43:31;99344.13;;;35.78;26.69
16664;BME280;8445;51.270;9.434;2023-05-09T09:46:00;99337.00;;;35.72;27.34
16664;BME280;8445;51.270;9.434;2023-05-09T09:48:30;99335.97;;;35.57;26.49
16664;BME280;8445;51.270;9.434;2023-05-09T09:51:02;99324.91;;;35.68;27.12
16664;BME280;8445;51.270;9.434;2023-05-09T09:53:28;99322.25;;;35.52;27.60
16664;BME280;8445;51.270;9.434;2023-05-09T09:55:54;99312.38;;;35.51;27.73
16664;BME280;8445;51.270;9.434;2023-05-09T09:58:20;99306.88;;;35.51;27.32
16664;BME280;8445;51.270;9.434;2023-05-09T10:01:04;99301.34;;;35.56;26.13
16664;BME280;8445;51.270;9.434;2023-05-09T10:03:41;99306.00;;;35.61;26.89
16664;BME280;8445;51.270;9.434;2023-05-09T10:06:11;99298.59;;;35.56;27.33
16664;BME280;8445;51.270;9.434;2023-05-09T10:08:38;99292.69;;;35.73;27.38
16664;BME280;8445;51.270;9.434;2023-05-09T10:11:07;99292.56;;;35.89;27.33
16664;BME280;8445;51.270;9.434;2023-05-09T10:13:34;99283.97;;;35.96;27.21
16664;BME280;8445;51.270;9.434;2023-05-09T10:16:03;99288.34;;;36.02;27.19
16664;BME280;8445;51.270;9.434;2023-05-09T10:18:30;99282.97;;;36.21;27.56
16664;BME280;8445;51.270;9.434;2023-05-09T10:20:57;99277.06;;;36.33;27.09
16664;BME280;8445;51.270;9.434;2023-05-09T10:23:29;99274.81;;;36.64;27.24
16664;BME280;8445;51.270;9.434;2023-05-09T10:26:25;99269.94;;;36.56;23.76
16664;BME280;8445;51.270;9.434;2023-05-09T10:28:56;99266.63;;;36.30;27.01
16664;BME280;8445;51.270;9.434;2023-05-09T10:31:25;99256.44;;;36.55;27.34
16664;BME280;8445;51.270;9.434;2023-05-09T10:33:52;99254.44;;;36.85;27.54
16664;BME280;8445;51.270;9.434;2023-05-09T10:36:19;99259.56;;;37.16;26.89
16664;BME280;8445;51.270;9.434;2023-05-09T10:38:50;99250.81;;;37.52;26.27
16664;BME280;8445;51.270;9.434;2023-05-09T10:41:18;99244.84;;;37.78;27.02
16664;BME280;8445;51.270;9.434;2023-05-09T10:43:46;99243.66;;;38.17;26.67
16664;BME280;8445;51.270;9.434;2023-05-09T10:46:12;99244.38;;;38.37;26.44
16664;BME280;8445;51.270;9.434;2023-05-09T10:48:39;99242.78;;;38.50;26.58
16664;BME280;8445;51.270;9.434;2023-05-09T10:51:06;99236.72;;;38.62;26.53
16664;BME280;8445;51.270;9.434;2023-05-09T10:53:48;99229.94;;;38.96;23.59
16664;BME280;8445;51.270;9.434;2023-05-09T10:56:33;99223.50;;;39.60;24.60
16664;BME280;8445;51.270;9.434;2023-05-09T10:59:04;99222.06;;;39.63;26.36
16664;BME280;8445;51.270;9.434;2023-05-09T11:04:00;99214.09;;;39.38;26.34
16664;BME280;8445;51.270;9.434;2023-05-09T11:09:35;99212.03;;;39.30;24.58
16664;BME280;8445;51.270;9.434;2023-05-09T11:12:11;99211.66;;;38.86;26.15
16664;BME280;8445;51.270;9.434;2023-05-09T11:14:47;99209.19;;;38.57;25.33
16664;BME280;8445;51.270;9.434;2023-05-09T11:17:26;99213.78;;;38.75;25.54
16664;BME280;8445;51.270;9.434;2023-05-09T11:22:22;99206.88;;;38.50;25.44
16664;BME280;8445;51.270;9.434;2023-05-09T11:24:59;99215.06;;;38.55;25.71
16664;BME280;8445;51.270;9.434;2023-05-09T11:27:26;99210.72;;;38.63;26.19
16664;BME280;8445;51.270;9.434;2023-05-09T11:29:57;99203.34;;;38.72;25.73
16664;BME280;8445;51.270;9.434;2023-05-09T11:35:13;99195.97;;;39.18;26.05
16664;BME280;8445;51.270;9.434;2023-05-09T11:38:00;99196.22;;;39.45;25.48
16664;BME280;8445;51.270;9.434;2023-05-09T11:40:27;99192.69;;;39.53;25.66
16664;BME280;8445;51.270;9.434;2023-05-09T11:42:54;99189.69;;;39.40;25.71
16664;BME280;8445;51.270;9.434;2023-05-09T11:45:21;99192.16;;;39.51;25.58
16664;BME280;8445;51.270;9.434;2023-05-09T11:47:48;99188.03;;;39.85;25.39
16664;BME280;8445;51.270;9.434;2023-05-09T11:50:16;99183.22;;;39.99;25.54
16664;BME280;8445;51.270;9.434;2023-05-09T11:52:42;99182.72;;;39.97;25.67
16664;BME280;8445;51.270;9.434;2023-05-09T11:55:13;99178.34;;;40.14;24.86
16664;BME280;8445;51.270;9.434;2023-05-09T11:57:44;99178.09;;;40.24;25.01
16664;BME280;8445;51.270;9.434;2023-05-09T12:00:09;99174.06;;;40.30;25.21
16664;BME280;8445;51.270;9.434;2023-05-09T12:02:36;99170.34;;;40.44;25.30
16664;BME280;8445;51.270;9.434;2023-05-09T12:05:06;99168.41;;;40.53;25.03
16664;BME280;8445;51.270;9.434;2023-05-09T12:07:34;99164.31;;;40.51;25.29
16664;BME280;8445;51.270;9.434;2023-05-09T12:09:59;99148.38;;;40.56;25.03
16664;BME280;8445;51.270;9.434;2023-05-09T12:12:26;99161.84;;;40.00;25.19
16664;BME280;8445;51.270;9.434;2023-05-09T12:14:52;99156.28;;;39.91;24.99
16664;BME280;8445;51.270;9.434;2023-05-09T12:17:17;99149.75;;;39.64;24.75
16664;BME280;8445;51.270;9.434;2023-05-09T12:19:43;99147.00;;;39.64;25.26
16664;BME280;8445;51.270;9.434;2023-05-09T12:22:08;99150.47;;;39.70;24.97
16664;BME280;8445;51.270;9.434;2023-05-09T12:24:44;99139.19;;;39.89;24.15
16664;BME280;8445;51.270;9.434;2023-05-09T12:27:10;99134.63;;;39.93;24.80
16664;BME280;8445;51.270;9.434;2023-05-09T12:29:36;99131.72;;;39.98;24.84
16664;BME280;8445;51.270;9.434;2023-05-09T12:32:04;99132.72;;;40.02;24.67
16664;BME280;8445;51.270;9.434;2023-05-09T12:34:30;99129.47;;;40.09;24.78
16664;BME280;8445;51.270;9.434;2023-05-09T12:36:56;99123.56;;;39.93;24.42
16664;BME280;8445;51.270;9.434;2023-05-09T12:39:24;99124.47;;;39.80;24.41
16664;BME280;8445;51.270;9.434;2023-05-09T12:41:51;99118.56;;;39.72;24.48
16664;BME280;8445;51.270;9.434;2023-05-09T12:44:25;99115.28;;;39.70;23.68
16664;BME280;8445;51.270;9.434;2023-05-09T12:47:02;99114.81;;;39.46;23.68
16664;BME280;8445;51.270;9.434;2023-05-09T12:49:29;99119.59;;;39.31;24.55
16664;BME280;8445;51.270;9.434;2023-05-09T12:51:57;99110.56;;;39.39;24.63
16664;BME280;8445;51.270;9.434;2023-05-09T12:54:24;99112.25;;;39.49;24.48
16664;BME280;8445;51.270;9.434;2023-05-09T12:56:51;99104.75;;;39.50;24.46
16664;BME280;8445;51.270;9.434;2023-05-09T12:59:23;99095.31;;;39.51;24.11
16664;BME280;8445;51.270;9.434;2023-05-09T13:01:54;99091.72;;;39.41;22.31
16664;BME280;8445;51.270;9.434;2023-05-09T13:04:21;99088.25;;;39.36;24.38
16664;BME280;8445;51.270;9.434;2023-05-09T13:06:56;99089.44;;;39.21;24.53
16664;BME280;8445;51.270;9.434;2023-05-09T13:09:26;99095.34;;;38.04;25.18
16664;BME280;8445;51.270;9.434;2023-05-09T13:11:54;99089.72;;;36.96;26.75
16664;BME280;8445;51.270;9.434;2023-05-09T13:14:21;99084.94;;;37.06;26.73
16664;BME280;8445;51.270;9.434;2023-05-09T13:16:49;99075.97;;;36.76;27.27
16664;BME280;8445;51.270;9.434;2023-05-09T13:19:14;99068.09;;;36.51;27.34
16664;BME280;8445;51.270;9.434;2023-05-09T13:21:40;99057.41;;;36.44;27.55
16664;BME280;8445;51.270;9.434;2023-05-09T13:24:06;99063.59;;;36.35;27.05
16664;BME280;8445;51.270;9.434;2023-05-09T13:26:31;99055.09;;;36.32;27.18
16664;BME280;8445;51.270;9.434;2023-05-09T13:28:59;99044.94;;;36.08;27.34
16664;BME280;8445;51.270;9.434;2023-05-09T13:31:24;99044.25;;;35.97;27.63
16664;BME280;8445;51.270;9.434;2023-05-09T13:33:50;99041.06;;;35.85;27.22
16664;BME280;8445;51.270;9.434;2023-05-09T13:36:16;99031.59;;;35.72;27.17
16664;BME280;8445;51.270;9.434;2023-05-09T13:38:42;99034.88;;;35.74;27.17